createdAt,value
2018-09-06T00:00:58.760Z,3.90
2018-09-06T00:01:58.747Z,4.00
2018-09-06T00:02:58.742Z,3.90
2018-09-06T00:03:58.745Z,3.80
2018-09-06T00:04:58.832Z,3.90
2018-09-06T00:05:58.729Z,4.00
2018-09-06T00:06:58.735Z,4.00
2018-09-06T00:07:58.724Z,4.10
2018-09-06T00:08:58.710Z,3.70
2018-09-06T00:09:58.720Z,4.20
2018-09-06T00:10:58.711Z,4.20
2018-09-06T00:11:58.720Z,3.80
2018-09-06T00:12:58.717Z,3.70
2018-09-06T00:13:58.710Z,3.80
2018-09-06T00:14:58.708Z,4.00
2018-09-06T00:15:58.695Z,3.60
2018-09-06T00:16:58.685Z,3.80
2018-09-06T00:17:58.676Z,3.90
2018-09-06T00:18:58.684Z,3.90
2018-09-06T00:19:58.666Z,3.70
2018-09-06T00:20:58.669Z,3.70
2018-09-06T00:21:58.664Z,4.00
2018-09-06T00:22:58.660Z,3.80
2018-09-06T00:23:58.649Z,3.90
2018-09-06T00:24:58.645Z,4.00
2018-09-06T00:25:58.643Z,3.80
2018-09-06T00:26:58.645Z,3.90
2018-09-06T00:27:58.631Z,3.80
2018-09-06T00:28:58.630Z,4.10
2018-09-06T00:29:58.635Z,3.80
2018-09-06T00:30:58.620Z,4.20
2018-09-06T00:31:58.621Z,4.00
2018-09-06T00:32:58.604Z,3.70
2018-09-06T00:33:58.608Z,3.80
2018-09-06T00:34:58.612Z,3.90
2018-09-06T00:35:58.603Z,3.70
2018-09-06T00:36:58.624Z,4.00
2018-09-06T00:37:58.589Z,3.60
2018-09-06T00:38:58.579Z,4.00
2018-09-06T00:39:58.596Z,3.90
2018-09-06T00:40:58.571Z,4.10
2018-09-06T00:41:58.580Z,3.80
2018-09-06T00:42:58.568Z,4.00
2018-09-06T00:43:58.556Z,3.90
2018-09-06T00:44:58.560Z,3.70
2018-09-06T00:45:58.556Z,3.60
2018-09-06T00:46:58.555Z,3.90
2018-09-06T00:47:58.547Z,4.00
2018-09-06T00:48:58.540Z,3.90
2018-09-06T00:49:58.529Z,3.90
2018-09-06T00:50:58.526Z,4.00
2018-09-06T00:51:58.522Z,4.00
2018-09-06T00:52:58.520Z,3.90
2018-09-06T00:53:58.505Z,3.90
2018-09-06T00:54:58.509Z,3.80
2018-09-06T00:55:58.509Z,3.80
2018-09-06T00:56:58.495Z,3.90
2018-09-06T00:57:58.498Z,3.80
2018-09-06T00:58:58.487Z,3.80
2018-09-06T00:59:58.487Z,3.90
2018-09-06T01:00:58.489Z,4.10
2018-09-06T01:01:58.480Z,4.00
2018-09-06T01:02:58.470Z,3.70
2018-09-06T01:03:58.471Z,4.10
2018-09-06T01:04:58.461Z,4.00
2018-09-06T01:05:58.461Z,3.80
2018-09-06T01:06:58.452Z,3.70
2018-09-06T01:07:58.456Z,3.90
2018-09-06T01:08:58.445Z,4.00
2018-09-06T01:09:58.446Z,3.80
2018-09-06T01:10:58.441Z,4.10
2018-09-06T01:11:58.444Z,3.80
2018-09-06T01:12:58.420Z,3.90
2018-09-06T01:13:58.428Z,4.00
2018-09-06T01:14:58.417Z,3.80
2018-09-06T01:15:58.414Z,3.80
2018-09-06T01:16:58.407Z,3.90
2018-09-06T01:17:58.420Z,3.70
2018-09-06T01:18:58.405Z,4.20
2018-09-06T01:19:58.400Z,3.80
2018-09-06T01:20:58.391Z,3.80
2018-09-06T01:21:58.391Z,4.10
2018-09-06T01:22:58.387Z,3.90
2018-09-06T01:23:58.387Z,3.70
2018-09-06T01:24:58.380Z,4.00
2018-09-06T01:25:58.372Z,3.80
2018-09-06T01:26:58.376Z,3.80
2018-09-06T01:27:58.362Z,3.80
2018-09-06T01:28:58.356Z,4.00
2018-09-06T01:29:58.340Z,3.70
2018-09-06T01:30:58.355Z,3.90
2018-09-06T01:31:58.346Z,3.80
2018-09-06T01:32:58.331Z,4.10
2018-09-06T01:33:58.327Z,4.00
2018-09-06T01:34:58.330Z,3.80
2018-09-06T01:35:58.322Z,4.10
2018-09-06T01:36:58.333Z,4.00
2018-09-06T01:37:58.315Z,3.90
2018-09-06T01:38:58.316Z,3.80
2018-09-06T01:39:58.311Z,3.90
2018-09-06T01:40:58.301Z,3.60
2018-09-06T01:41:58.301Z,3.70
2018-09-06T01:42:58.295Z,4.00
2018-09-06T01:43:58.285Z,3.90
2018-09-06T01:44:58.301Z,3.50
2018-09-06T01:45:58.282Z,3.80
2018-09-06T01:46:58.287Z,3.80
2018-09-06T01:47:58.273Z,3.70
2018-09-06T01:48:58.272Z,3.80
2018-09-06T01:49:58.275Z,3.90
2018-09-06T01:50:58.253Z,4.00
2018-09-06T01:51:58.252Z,3.70
2018-09-06T01:52:58.257Z,3.50
2018-09-06T01:53:58.242Z,4.00
2018-09-06T01:54:58.241Z,3.90
2018-09-06T01:55:58.233Z,3.80
2018-09-06T01:56:58.231Z,3.90
2018-09-06T01:57:58.231Z,3.70
2018-09-06T01:58:58.232Z,3.70
2018-09-06T01:59:58.220Z,3.80
2018-09-06T02:00:58.232Z,3.90
2018-09-06T02:01:58.202Z,3.70
2018-09-06T02:02:58.205Z,3.80
2018-09-06T02:03:58.192Z,3.60
2018-09-06T02:04:58.196Z,3.70
2018-09-06T02:05:58.186Z,3.90
2018-09-06T02:06:58.181Z,3.50
2018-09-06T02:07:58.196Z,3.90
2018-09-06T02:08:58.175Z,3.80
2018-09-06T02:09:58.172Z,4.10
2018-09-06T02:10:58.168Z,4.00
2018-09-06T02:11:58.167Z,3.60
2018-09-06T02:12:58.162Z,4.00
2018-09-06T02:13:58.156Z,3.90
2018-09-06T02:14:58.149Z,3.90
2018-09-06T02:15:58.138Z,3.90
2018-09-06T02:16:58.143Z,3.80
2018-09-06T02:17:58.141Z,3.80
2018-09-06T02:18:58.130Z,3.90
2018-09-06T02:19:58.131Z,3.70
2018-09-06T02:20:58.133Z,3.70
2018-09-06T02:21:58.121Z,4.10
2018-09-06T02:22:58.116Z,3.80
2018-09-06T02:23:58.105Z,3.80
2018-09-06T02:24:58.152Z,4.20
2018-09-06T02:25:58.103Z,3.70
2018-09-06T02:26:58.088Z,3.90
2018-09-06T02:27:58.084Z,4.10
2018-09-06T02:28:58.089Z,4.00
2018-09-06T02:29:58.079Z,4.00
2018-09-06T02:30:58.074Z,3.70
2018-09-06T02:31:58.074Z,4.10
2018-09-06T02:32:58.082Z,3.90
2018-09-06T02:33:58.066Z,3.60
2018-09-06T02:34:58.061Z,3.70
2018-09-06T02:35:58.052Z,3.90
2018-09-06T02:36:58.056Z,4.00
2018-09-06T02:37:58.048Z,4.00
2018-09-06T02:38:58.048Z,3.90
2018-09-06T02:39:58.039Z,3.80
2018-09-06T02:40:58.032Z,4.00
2018-09-06T02:41:58.033Z,3.80
2018-09-06T02:42:58.024Z,4.00
2018-09-06T02:43:58.022Z,4.00
2018-09-06T02:44:58.019Z,3.60
2018-09-06T02:45:58.013Z,3.80
2018-09-06T02:46:58.000Z,3.50
2018-09-06T02:47:58.001Z,3.70
2018-09-06T02:48:58.001Z,3.80
2018-09-06T02:49:57.984Z,3.90
2018-09-06T02:50:57.981Z,4.00
2018-09-06T02:51:57.978Z,3.80
2018-09-06T02:52:57.987Z,3.70
2018-09-06T02:53:58.059Z,3.90
2018-09-06T02:54:57.972Z,3.70
2018-09-06T02:55:57.953Z,3.80
2018-09-06T02:56:57.969Z,3.90
2018-09-06T02:57:57.954Z,3.70
2018-09-06T02:58:57.951Z,3.80
2018-09-06T02:59:57.954Z,3.90
2018-09-06T03:00:57.945Z,3.90
2018-09-06T03:01:57.932Z,3.60
2018-09-06T03:02:57.932Z,3.90
2018-09-06T03:03:57.922Z,3.60
2018-09-06T03:04:57.922Z,3.80
2018-09-06T03:05:57.922Z,3.60
2018-09-06T03:06:57.919Z,4.00
2018-09-06T03:07:57.912Z,3.80
2018-09-06T03:08:57.912Z,3.70
2018-09-06T03:09:57.901Z,3.70
2018-09-06T03:10:57.893Z,3.80
2018-09-06T03:11:57.891Z,3.80
2018-09-06T03:12:57.883Z,3.80
2018-09-06T03:13:57.881Z,3.90
2018-09-06T03:14:57.883Z,4.00
2018-09-06T03:15:57.867Z,3.90
2018-09-06T03:16:57.877Z,4.00
2018-09-06T03:17:57.875Z,3.90
2018-09-06T03:18:57.863Z,3.90
2018-09-06T03:19:57.852Z,4.10
2018-09-06T03:20:57.855Z,3.80
2018-09-06T03:21:57.845Z,3.90
2018-09-06T03:22:57.843Z,3.90
2018-09-06T03:23:57.836Z,3.80
2018-09-06T03:24:57.842Z,3.80
2018-09-06T03:25:57.826Z,4.10
2018-09-06T03:26:57.822Z,4.20
2018-09-06T03:27:57.824Z,4.10
2018-09-06T03:28:57.814Z,4.00
2018-09-06T03:29:57.813Z,3.90
2018-09-06T03:30:57.801Z,3.90
2018-09-06T03:31:57.805Z,3.80
2018-09-06T03:32:57.800Z,3.70
2018-09-06T03:33:57.785Z,3.80
2018-09-06T03:34:57.787Z,3.70
2018-09-06T03:35:57.784Z,3.80
2018-09-06T03:36:57.780Z,3.90
2018-09-06T03:37:57.772Z,3.80
2018-09-06T03:38:57.779Z,3.90
2018-09-06T03:39:57.783Z,3.90
2018-09-06T03:40:57.759Z,3.70
2018-09-06T03:41:57.753Z,3.70
2018-09-06T03:42:57.793Z,4.10
2018-09-06T03:43:57.766Z,3.50
2018-09-06T03:44:57.748Z,4.10
2018-09-06T03:45:57.738Z,3.90
2018-09-06T03:46:57.729Z,3.90
2018-09-06T03:47:57.727Z,4.00
2018-09-06T03:48:57.728Z,4.00
2018-09-06T03:49:57.724Z,3.80
2018-09-06T03:50:57.710Z,4.00
2018-09-06T03:51:57.715Z,3.80
2018-09-06T03:52:57.700Z,3.70
2018-09-06T03:53:57.700Z,3.90
2018-09-06T03:54:57.701Z,4.00
2018-09-06T03:55:57.693Z,4.10
2018-09-06T03:56:57.693Z,4.20
2018-09-06T03:57:57.685Z,3.70
2018-09-06T03:58:57.673Z,3.80
2018-09-06T03:59:57.669Z,3.70
2018-09-06T04:00:57.669Z,3.70
2018-09-06T04:01:57.663Z,3.80
2018-09-06T04:02:57.658Z,4.00
2018-09-06T04:03:57.665Z,4.00
2018-09-06T04:04:57.650Z,3.60
2018-09-06T04:05:57.655Z,3.90
2018-09-06T04:06:57.639Z,3.60
2018-09-06T04:07:57.640Z,3.90
2018-09-06T04:08:57.636Z,3.90
2018-09-06T04:09:57.640Z,3.80
2018-09-06T04:10:57.625Z,3.50
2018-09-06T04:11:57.634Z,3.80
2018-09-06T04:12:57.639Z,3.70
2018-09-06T04:13:57.617Z,3.90
2018-09-06T04:14:57.607Z,3.70
2018-09-06T04:15:57.605Z,3.80
2018-09-06T04:16:57.600Z,3.90
2018-09-06T04:17:57.595Z,3.70
2018-09-06T04:18:57.587Z,4.00
2018-09-06T04:19:57.579Z,3.70
2018-09-06T04:20:57.574Z,4.00
2018-09-06T04:21:57.569Z,3.80
2018-09-06T04:22:57.574Z,3.80
2018-09-06T04:23:57.570Z,3.70
2018-09-06T04:24:57.566Z,4.00
2018-09-06T04:25:57.557Z,3.60
2018-09-06T04:26:57.552Z,3.70
2018-09-06T04:27:57.546Z,3.90
2018-09-06T04:28:57.549Z,4.10
2018-09-06T04:29:57.534Z,3.90
2018-09-06T04:30:57.547Z,4.30
2018-09-06T04:31:57.526Z,4.20
2018-09-06T04:32:57.525Z,4.40
2018-09-06T04:33:57.520Z,4.20
2018-09-06T04:34:57.515Z,4.10
2018-09-06T04:35:57.542Z,3.90
2018-09-06T04:36:57.501Z,3.90
2018-09-06T04:37:57.496Z,4.40
2018-09-06T04:38:57.495Z,3.80
2018-09-06T04:39:57.498Z,4.00
2018-09-06T04:40:57.491Z,3.90
2018-09-06T04:41:57.480Z,4.00
2018-09-06T04:42:57.481Z,3.70
2018-09-06T04:43:57.475Z,4.00
2018-09-06T04:44:57.476Z,4.00
2018-09-06T04:45:57.467Z,4.20
2018-09-06T04:46:57.455Z,3.90
2018-09-06T04:47:57.459Z,4.10
2018-09-06T04:48:57.451Z,4.00
2018-09-06T04:49:57.456Z,4.20
2018-09-06T04:50:57.431Z,4.20
2018-09-06T04:51:57.449Z,3.90
2018-09-06T04:52:57.436Z,3.80
2018-09-06T04:53:57.431Z,4.00
2018-09-06T04:54:57.421Z,4.10
2018-09-06T04:55:57.435Z,4.00
2018-09-06T04:56:57.412Z,4.10
2018-09-06T04:57:57.420Z,4.00
2018-09-06T04:58:57.429Z,4.00
2018-09-06T04:59:57.411Z,3.80
2018-09-06T05:00:57.410Z,4.20
2018-09-06T05:01:57.392Z,4.00
2018-09-06T05:02:57.376Z,4.10
2018-09-06T05:03:57.381Z,4.00
2018-09-06T05:04:57.380Z,4.10
2018-09-06T05:05:57.379Z,4.30
2018-09-06T05:06:57.381Z,4.10
2018-09-06T05:07:57.371Z,4.00
2018-09-06T05:08:57.359Z,4.20
2018-09-06T05:09:57.349Z,4.40
2018-09-06T05:10:57.356Z,3.90
2018-09-06T05:11:57.341Z,4.10
2018-09-06T05:12:57.337Z,4.00
2018-09-06T05:13:57.345Z,3.80
2018-09-06T05:14:57.340Z,4.10
2018-09-06T05:15:57.331Z,4.00
2018-09-06T05:16:57.321Z,4.20
2018-09-06T05:17:57.324Z,4.00
2018-09-06T05:18:57.314Z,4.10
2018-09-06T05:19:57.320Z,3.90
2018-09-06T05:20:57.306Z,3.90
2018-09-06T05:21:57.314Z,3.80
2018-09-06T05:22:57.306Z,4.00
2018-09-06T05:23:57.295Z,3.80
2018-09-06T05:24:57.286Z,4.20
2018-09-06T05:25:57.278Z,4.20
2018-09-06T05:26:57.282Z,3.80
2018-09-06T05:27:57.280Z,4.00
2018-09-06T05:28:57.269Z,4.10
2018-09-06T05:29:57.267Z,4.00
2018-09-06T05:30:57.267Z,4.00
2018-09-06T05:31:57.260Z,3.90
2018-09-06T05:32:57.260Z,3.90
2018-09-06T05:33:57.249Z,4.10
2018-09-06T05:34:57.243Z,3.90
2018-09-06T05:35:57.245Z,4.10
2018-09-06T05:36:57.236Z,3.80
2018-09-06T05:37:57.226Z,3.80
2018-09-06T05:38:57.226Z,4.00
2018-09-06T05:39:57.216Z,3.80
2018-09-06T05:40:57.220Z,4.00
2018-09-06T05:41:57.226Z,3.70
2018-09-06T05:42:57.207Z,4.10
2018-09-06T05:43:57.201Z,3.40
2018-09-06T05:44:57.211Z,4.20
2018-09-06T05:45:57.191Z,4.10
2018-09-06T05:46:57.186Z,4.00
2018-09-06T05:47:57.181Z,4.40
2018-09-06T05:48:57.181Z,4.30
2018-09-06T05:49:57.178Z,4.10
2018-09-06T05:50:57.172Z,4.30
2018-09-06T05:51:57.170Z,4.00
2018-09-06T05:52:57.172Z,4.50
2018-09-06T05:53:57.152Z,4.20
2018-09-06T05:54:57.155Z,4.10
2018-09-06T05:55:57.172Z,4.20
2018-09-06T05:56:57.142Z,3.90
2018-09-06T05:57:57.159Z,4.00
2018-09-06T05:58:57.136Z,4.00
2018-09-06T05:59:57.150Z,4.20
2018-09-06T06:00:57.131Z,4.00
2018-09-06T06:01:57.130Z,3.70
2018-09-06T06:02:57.120Z,3.80
2018-09-06T06:03:57.125Z,3.90
2018-09-06T06:04:57.114Z,4.00
2018-09-06T06:05:57.107Z,3.80
2018-09-06T06:06:57.101Z,4.20
2018-09-06T06:07:57.102Z,3.80
2018-09-06T06:08:57.083Z,3.90
2018-09-06T06:09:57.091Z,3.80
2018-09-06T06:10:57.081Z,4.00
2018-09-06T06:11:57.098Z,3.80
2018-09-06T06:12:57.065Z,3.80
2018-09-06T06:13:57.073Z,3.90
2018-09-06T06:14:57.065Z,3.70
2018-09-06T06:15:57.089Z,3.80
2018-09-06T06:16:57.065Z,3.70
2018-09-06T06:17:57.053Z,4.20
2018-09-06T06:18:57.042Z,4.10
2018-09-06T06:19:57.090Z,4.10
2018-09-06T06:20:57.028Z,3.80
2018-09-06T06:21:57.036Z,3.80
2018-09-06T06:22:57.021Z,3.70
2018-09-06T06:23:57.013Z,3.90
2018-09-06T06:24:57.016Z,3.80
2018-09-06T06:25:57.023Z,3.70
2018-09-06T06:26:57.006Z,3.50
2018-09-06T06:27:57.004Z,3.80
2018-09-06T06:28:57.007Z,3.80
2018-09-06T06:29:56.993Z,3.90
2018-09-06T06:30:56.998Z,3.70
2018-09-06T06:31:56.976Z,3.80
2018-09-06T06:32:56.988Z,3.80
2018-09-06T06:33:56.996Z,4.10
2018-09-06T06:34:56.962Z,3.80
2018-09-06T06:35:56.955Z,3.80
2018-09-06T06:36:56.963Z,3.70
2018-09-06T06:37:56.965Z,3.90
2018-09-06T06:38:56.952Z,3.90
2018-09-06T06:39:56.984Z,3.70
2018-09-06T06:40:56.943Z,3.90
2018-09-06T06:41:56.937Z,3.70
2018-09-06T06:42:56.936Z,3.70
2018-09-06T06:43:56.928Z,3.80
2018-09-06T06:44:56.915Z,3.90
2018-09-06T06:45:56.923Z,3.90
2018-09-06T06:46:56.913Z,3.90
2018-09-06T06:47:56.910Z,3.90
2018-09-06T06:48:56.906Z,4.00
2018-09-06T06:49:56.902Z,4.30
2018-09-06T06:50:56.890Z,4.00
2018-09-06T06:51:56.893Z,3.90
2018-09-06T06:52:56.886Z,3.80
2018-09-06T06:53:56.875Z,3.90
2018-09-06T06:54:56.872Z,4.20
2018-09-06T06:55:56.882Z,3.80
2018-09-06T06:56:56.871Z,3.70
2018-09-06T06:57:56.861Z,3.90
2018-09-06T06:58:56.881Z,3.70
2018-09-06T06:59:56.856Z,4.00
2018-09-06T07:00:56.863Z,3.90
2018-09-06T07:01:56.842Z,4.30
2018-09-06T07:02:56.841Z,3.70
2018-09-06T07:03:56.850Z,3.80
2018-09-06T07:04:56.837Z,3.80
2018-09-06T07:05:56.838Z,3.60
2018-09-06T07:06:56.902Z,3.90
2018-09-06T07:07:56.819Z,3.90
2018-09-06T07:08:56.811Z,4.00
2018-09-06T07:09:56.816Z,4.10
2018-09-06T07:10:56.806Z,4.10
2018-09-06T07:11:56.802Z,4.00
2018-09-06T07:12:56.792Z,4.30
2018-09-06T07:13:56.783Z,3.90
2018-09-06T07:14:56.789Z,3.80
2018-09-06T07:15:56.783Z,4.10
2018-09-06T07:16:56.786Z,3.80
2018-09-06T07:17:56.796Z,3.80
2018-09-06T07:18:56.771Z,3.80
2018-09-06T07:19:56.758Z,3.60
2018-09-06T07:20:56.757Z,3.80
2018-09-06T07:21:56.757Z,3.80
2018-09-06T07:22:56.752Z,3.80
2018-09-06T07:23:56.751Z,3.60
2018-09-06T07:24:56.749Z,3.90
2018-09-06T07:25:56.744Z,3.60
2018-09-06T07:26:56.734Z,3.80
2018-09-06T07:27:56.727Z,3.90
2018-09-06T07:28:56.736Z,3.90
2018-09-06T07:29:56.721Z,3.80
2018-09-06T07:30:56.707Z,3.60
2018-09-06T07:31:56.707Z,3.60
2018-09-06T07:32:56.713Z,3.90
2018-09-06T07:33:56.703Z,3.70
2018-09-06T07:34:56.694Z,3.60
2018-09-06T07:35:56.692Z,3.80
2018-09-06T07:36:56.688Z,3.70
2018-09-06T07:37:56.689Z,3.50
2018-09-06T07:38:56.679Z,3.80
2018-09-06T07:39:56.673Z,3.90
2018-09-06T07:40:56.672Z,3.60
2018-09-06T07:41:56.673Z,3.60
2018-09-06T07:42:56.667Z,3.70
2018-09-06T07:43:56.678Z,3.50
2018-09-06T07:44:56.654Z,3.70
2018-09-06T07:45:56.648Z,3.80
2018-09-06T07:46:56.726Z,3.90
2018-09-06T07:47:56.634Z,3.80
2018-09-06T07:48:56.632Z,3.70
2018-09-06T07:49:56.654Z,3.90
2018-09-06T07:50:56.627Z,3.90
2018-09-06T07:51:56.618Z,3.70
2018-09-06T07:52:56.614Z,3.80
2018-09-06T07:53:56.611Z,3.60
2018-09-06T07:54:56.623Z,3.60
2018-09-06T07:55:56.593Z,3.70
2018-09-06T07:56:56.594Z,3.50
2018-09-06T07:57:56.587Z,3.70
2018-09-06T07:58:56.589Z,3.80
2018-09-06T07:59:56.582Z,3.60
2018-09-06T08:00:56.602Z,3.70
2018-09-06T08:01:56.574Z,3.90
2018-09-06T08:02:56.576Z,4.00
2018-09-06T08:03:56.565Z,3.80
2018-09-06T08:04:56.562Z,3.90
2018-09-06T08:05:56.554Z,3.90
2018-09-06T08:06:56.545Z,3.30
2018-09-06T08:07:56.553Z,3.80
2018-09-06T08:08:56.542Z,3.50
2018-09-06T08:09:56.541Z,3.80
2018-09-06T08:10:56.525Z,3.80
2018-09-06T08:11:56.533Z,3.60
2018-09-06T08:12:56.524Z,3.80
2018-09-06T08:13:56.517Z,3.60
2018-09-06T08:14:56.517Z,3.50
2018-09-06T08:15:56.509Z,3.70
2018-09-06T08:16:56.503Z,3.40
2018-09-06T08:17:56.495Z,3.60
2018-09-06T08:18:56.569Z,3.80
2018-09-06T08:19:56.484Z,3.70
2018-09-06T08:20:56.504Z,3.50
2018-09-06T08:21:56.490Z,3.70
2018-09-06T08:22:56.475Z,3.50
2018-09-06T08:23:56.468Z,3.70
2018-09-06T08:24:56.466Z,3.40
2018-09-06T08:25:56.475Z,3.60
2018-09-06T08:26:56.462Z,3.40
2018-09-06T08:27:56.472Z,3.60
2018-09-06T08:28:56.464Z,3.70
2018-09-06T08:29:56.442Z,3.60
2018-09-06T08:30:56.552Z,3.40
2018-09-06T08:31:56.434Z,3.60
2018-09-06T08:32:56.442Z,3.50
2018-09-06T08:33:56.424Z,3.50
2018-09-06T08:34:56.424Z,3.50
2018-09-06T08:35:56.426Z,3.50
2018-09-06T08:36:56.453Z,3.90
2018-09-06T08:37:56.411Z,3.70
2018-09-06T08:38:56.410Z,3.80
2018-09-06T08:39:56.404Z,3.50
2018-09-06T08:40:56.399Z,3.50
2018-09-06T08:41:56.387Z,3.60
2018-09-06T08:42:56.388Z,3.70
2018-09-06T08:43:56.378Z,3.70
2018-09-06T08:44:56.392Z,3.50
2018-09-06T08:45:56.376Z,3.40
2018-09-06T08:46:56.368Z,3.70
2018-09-06T08:47:56.363Z,3.60
2018-09-06T08:48:56.359Z,3.80
2018-09-06T08:49:56.353Z,3.50
2018-09-06T08:50:56.347Z,3.40
2018-09-06T08:51:56.344Z,3.60
2018-09-06T08:52:56.334Z,4.00
2018-09-06T08:53:56.335Z,3.70
2018-09-06T08:54:56.340Z,3.60
2018-09-06T08:55:56.322Z,3.60
2018-09-06T08:56:56.319Z,3.70
2018-09-06T08:57:56.325Z,3.60
2018-09-06T08:58:56.312Z,3.30
2018-09-06T08:59:56.313Z,3.40
2018-09-06T09:00:56.304Z,3.60
2018-09-06T09:01:56.306Z,3.50
2018-09-06T09:02:56.444Z,3.40
2018-09-06T09:03:56.290Z,3.40
2018-09-06T09:04:56.284Z,3.90
2018-09-06T09:05:56.310Z,3.60
2018-09-06T09:06:56.278Z,3.70
2018-09-06T09:07:56.275Z,3.40
2018-09-06T09:08:56.270Z,3.80
2018-09-06T09:09:56.268Z,3.60
2018-09-06T09:10:56.263Z,3.50
2018-09-06T09:11:56.255Z,3.40
2018-09-06T09:12:56.311Z,3.50
2018-09-06T09:13:56.245Z,3.40
2018-09-06T09:14:56.273Z,3.30
2018-09-06T09:15:56.251Z,3.60
2018-09-06T09:16:56.229Z,3.50
2018-09-06T09:17:56.226Z,3.60
2018-09-06T09:18:56.219Z,3.80
2018-09-06T09:19:56.231Z,3.90
2018-09-06T09:20:56.215Z,3.80
2018-09-06T09:21:56.281Z,3.60
2018-09-06T09:22:56.198Z,3.80
2018-09-06T09:23:56.199Z,3.70
2018-09-06T09:24:56.199Z,3.80
2018-09-06T09:25:56.195Z,3.20
2018-09-06T09:26:56.189Z,3.50
2018-09-06T09:27:56.176Z,3.50
2018-09-06T09:28:56.181Z,3.50
2018-09-06T09:29:56.170Z,3.50
2018-09-06T09:30:56.183Z,3.40
2018-09-06T09:31:56.163Z,3.50
2018-09-06T09:32:56.155Z,3.40
2018-09-06T09:33:56.165Z,3.50
2018-09-06T09:34:56.164Z,3.40
2018-09-06T09:35:56.169Z,3.50
2018-09-06T09:36:56.139Z,3.50
2018-09-06T09:37:56.140Z,3.20
2018-09-06T09:38:56.157Z,3.60
2018-09-06T09:39:56.120Z,3.40
2018-09-06T09:40:56.126Z,3.50
2018-09-06T09:41:56.128Z,3.40
2018-09-06T09:42:56.127Z,3.70
2018-09-06T09:43:56.115Z,3.30
2018-09-06T09:44:56.135Z,3.40
2018-09-06T09:47:48.970Z,3.50
2018-09-06T09:49:21.056Z,3.30
2018-09-06T09:51:52.879Z,3.50
2018-09-06T09:52:52.850Z,3.50
2018-09-06T09:54:46.011Z,3.60
2018-09-06T09:55:45.979Z,3.40
2018-09-06T09:57:39.110Z,3.40
2018-09-06T09:58:39.076Z,3.30
2018-09-06T10:00:32.191Z,3.40
2018-09-06T10:01:32.176Z,3.50
2018-09-06T10:03:25.312Z,3.40
2018-09-06T10:04:25.290Z,3.50
2018-09-06T10:06:18.444Z,3.40
2018-09-06T10:07:18.387Z,3.40
2018-09-06T10:09:11.506Z,3.50
2018-09-06T10:10:11.489Z,3.70
2018-09-06T10:12:04.636Z,3.70
2018-09-06T10:13:04.600Z,3.50
2018-09-06T10:14:04.589Z,3.20
2018-09-06T10:15:04.591Z,3.60
2018-09-06T10:16:04.586Z,3.50
2018-09-06T10:17:04.575Z,3.70
2018-09-06T10:18:04.613Z,3.30
2018-09-06T10:19:04.570Z,3.70
2018-09-06T10:20:04.571Z,3.50
2018-09-06T10:21:04.557Z,3.40
2018-09-06T10:22:04.570Z,3.40
2018-09-06T10:23:04.551Z,3.40
2018-09-06T10:24:04.552Z,3.60
2018-09-06T10:25:04.548Z,3.60
2018-09-06T10:26:04.537Z,3.40
2018-09-06T10:27:04.534Z,3.40
2018-09-06T10:28:04.534Z,3.40
2018-09-06T10:29:04.520Z,3.20
2018-09-06T10:30:04.522Z,3.60
2018-09-06T10:31:04.511Z,3.30
2018-09-06T10:32:04.506Z,3.50
2018-09-06T10:33:04.502Z,3.60
2018-09-06T10:34:04.501Z,3.30
2018-09-06T10:35:04.499Z,3.50
2018-09-06T10:36:04.496Z,3.70
2018-09-06T10:37:04.504Z,3.30
2018-09-06T10:38:04.482Z,3.60
2018-09-06T10:39:04.482Z,3.30
2018-09-06T10:40:04.476Z,3.30
2018-09-06T10:41:04.463Z,3.40
2018-09-06T10:42:04.461Z,3.30
2018-09-06T10:43:04.459Z,3.70
2018-09-06T10:44:04.451Z,3.40
2018-09-06T10:45:04.448Z,3.50
2018-09-06T10:46:04.441Z,3.60
2018-09-06T10:47:04.451Z,3.40
2018-09-06T10:48:04.438Z,3.20
2018-09-06T10:49:04.432Z,3.70
2018-09-06T10:50:04.430Z,3.30
2018-09-06T10:51:04.416Z,3.30
2018-09-06T10:52:04.417Z,3.30
2018-09-06T10:53:04.412Z,3.30
2018-09-06T10:54:04.440Z,3.40
2018-09-06T10:55:04.407Z,3.40
2018-09-06T10:56:04.412Z,3.20
2018-09-06T10:57:04.397Z,3.40
2018-09-06T10:58:04.401Z,3.70
2018-09-06T10:59:04.401Z,3.50
2018-09-06T11:00:04.391Z,3.40
2018-09-06T11:01:04.381Z,3.60
2018-09-06T11:02:04.392Z,3.50
2018-09-06T11:03:04.376Z,3.40
2018-09-06T11:04:04.373Z,3.30
2018-09-06T11:05:04.358Z,3.50
2018-09-06T11:06:04.349Z,3.40
2018-09-06T11:07:04.357Z,3.30
2018-09-06T11:08:04.434Z,3.40
2018-09-06T11:09:04.348Z,3.20
2018-09-06T11:10:04.331Z,3.30
2018-09-06T11:11:04.352Z,3.60
2018-09-06T11:12:04.336Z,3.60
2018-09-06T11:13:04.322Z,3.50
2018-09-06T11:14:04.323Z,3.40
2018-09-06T11:15:04.354Z,3.20
2018-09-06T11:16:04.310Z,3.30
2018-09-06T11:17:04.306Z,3.30
2018-09-06T11:18:04.324Z,3.40
2018-09-06T11:19:04.325Z,3.20
2018-09-06T11:20:04.305Z,3.50
2018-09-06T11:21:04.298Z,3.00
2018-09-06T11:22:04.468Z,3.10
2018-09-06T11:23:04.281Z,3.20
2018-09-06T11:24:04.277Z,3.30
2018-09-06T11:25:04.286Z,3.40
2018-09-06T11:26:04.274Z,3.50
2018-09-06T11:27:04.271Z,3.20
2018-09-06T11:28:04.252Z,3.50
2018-09-06T11:29:04.253Z,3.40
2018-09-06T11:30:04.248Z,3.50
2018-09-06T11:31:04.242Z,3.30
2018-09-06T11:32:04.240Z,3.30
2018-09-06T11:33:04.232Z,3.40
2018-09-06T11:34:04.237Z,3.10
2018-09-06T11:35:04.217Z,3.40
2018-09-06T11:36:04.221Z,3.30
2018-09-06T11:37:04.208Z,3.50
2018-09-06T11:38:04.222Z,3.50
2018-09-06T11:39:04.213Z,3.30
2018-09-06T11:40:04.210Z,3.10
2018-09-06T11:41:04.192Z,3.40
2018-09-06T11:42:04.197Z,3.40
2018-09-06T11:43:04.229Z,3.40
2018-09-06T11:44:04.182Z,3.50
2018-09-06T11:45:04.176Z,3.30
2018-09-06T11:46:04.171Z,3.50
2018-09-06T11:47:04.216Z,3.30
2018-09-06T11:48:04.171Z,3.40
2018-09-06T11:49:04.161Z,3.50
2018-09-06T11:50:04.163Z,3.40
2018-09-06T11:51:04.156Z,3.30
2018-09-06T11:52:04.146Z,3.50
2018-09-06T11:53:04.182Z,3.40
2018-09-06T11:54:04.163Z,3.70
2018-09-06T11:55:04.128Z,3.40
2018-09-06T11:56:04.139Z,3.50
2018-09-06T11:57:04.129Z,3.40
2018-09-06T11:58:04.121Z,3.20
2018-09-06T11:59:04.136Z,3.10
2018-09-06T12:00:04.112Z,3.60
2018-09-06T12:01:04.106Z,3.20
2018-09-06T12:02:04.172Z,3.30
2018-09-06T12:03:04.103Z,3.20
2018-09-06T12:04:04.092Z,3.30
2018-09-06T12:05:04.117Z,3.30
2018-09-06T12:06:04.106Z,3.50
2018-09-06T12:07:04.074Z,3.40
2018-09-06T12:08:04.071Z,3.40
2018-09-06T12:09:04.096Z,3.20
2018-09-06T12:10:04.072Z,3.40
2018-09-06T12:11:04.067Z,3.30
2018-09-06T12:12:04.062Z,3.40
2018-09-06T12:13:04.049Z,3.40
2018-09-06T12:14:04.063Z,3.30
2018-09-06T12:15:04.039Z,3.50
2018-09-06T12:16:04.073Z,3.10
2018-09-06T12:17:04.053Z,3.20
2018-09-06T12:18:04.038Z,3.30
2018-09-06T12:19:04.032Z,3.40
2018-09-06T12:20:04.037Z,3.30
2018-09-06T12:21:04.028Z,3.20
2018-09-06T12:22:04.033Z,3.40
2018-09-06T12:23:04.012Z,3.50
2018-09-06T12:24:03.999Z,3.40
2018-09-06T12:25:03.994Z,3.60
2018-09-06T12:26:03.998Z,3.40
2018-09-06T12:27:03.999Z,3.70
2018-09-06T12:28:03.984Z,3.40
2018-09-06T12:29:03.984Z,3.60
2018-09-06T12:30:03.971Z,3.60
2018-09-06T12:31:03.978Z,3.60
2018-09-06T12:32:03.969Z,3.50
2018-09-06T12:33:03.993Z,3.40
2018-09-06T12:34:03.954Z,3.40
2018-09-06T12:35:03.947Z,3.50
2018-09-06T12:36:03.947Z,3.60
2018-09-06T12:37:03.944Z,3.50
2018-09-06T12:38:03.942Z,3.60
2018-09-06T12:39:03.938Z,3.50
2018-09-06T12:40:03.929Z,3.30
2018-09-06T12:41:03.923Z,3.50
2018-09-06T12:42:03.927Z,3.50
2018-09-06T12:43:03.918Z,3.30
2018-09-06T12:44:03.925Z,3.30
2018-09-06T12:45:03.899Z,3.50
2018-09-06T12:46:03.904Z,3.50
2018-09-06T12:47:03.894Z,3.30
2018-09-06T12:48:03.895Z,3.10
2018-09-06T12:49:03.887Z,3.40
2018-09-06T12:50:03.883Z,3.30
2018-09-06T12:51:03.880Z,3.10
2018-09-06T12:52:03.875Z,3.30
2018-09-06T12:53:03.873Z,3.40
2018-09-06T12:54:03.874Z,3.30
2018-09-06T12:55:03.862Z,3.50
2018-09-06T12:56:03.868Z,3.20
2018-09-06T12:57:03.863Z,3.20
2018-09-06T12:58:03.864Z,3.40
2018-09-06T12:59:03.855Z,3.20
2018-09-06T13:00:03.848Z,3.30
2018-09-06T13:01:03.838Z,3.80
2018-09-06T13:02:03.832Z,3.40
2018-09-06T13:03:03.830Z,3.20
2018-09-06T13:04:03.834Z,3.30
2018-09-06T13:05:03.823Z,3.60
2018-09-06T13:06:04.019Z,3.30
2018-09-06T13:07:03.819Z,3.10
2018-09-06T13:08:03.853Z,3.30
2018-09-06T13:09:03.798Z,3.30
2018-09-06T13:10:03.804Z,3.30
2018-09-06T13:11:03.803Z,3.30
2018-09-06T13:12:03.789Z,3.20
2018-09-06T13:13:03.783Z,3.30
2018-09-06T13:14:03.794Z,3.60
2018-09-06T13:15:03.785Z,3.10
2018-09-06T13:16:03.792Z,3.40
2018-09-06T13:17:03.771Z,3.30
2018-09-06T13:18:03.767Z,3.60
2018-09-06T13:19:03.763Z,3.30
2018-09-06T13:20:03.763Z,3.00
2018-09-06T13:21:03.753Z,3.20
2018-09-06T13:22:03.745Z,3.30
2018-09-06T13:23:03.765Z,3.50
2018-09-06T13:24:03.738Z,3.30
2018-09-06T13:25:03.734Z,3.20
2018-09-06T13:26:03.734Z,3.40
2018-09-06T13:27:03.740Z,3.20
2018-09-06T13:28:03.736Z,3.40
2018-09-06T13:29:03.723Z,3.30